sensor_id;sensor_type;location;lat;lon;timestamp;P1;durP1;ratioP1;P2;durP2;ratioP2
30571;SDS011;17348;50.948;10.696;2022-10-22T00:01:13;9.55;;;5.38;;
30571;SDS011;17348;50.948;10.696;2022-10-22T00:04:15;7.57;;;5.13;;
30571;SDS011;17348;50.948;10.696;2022-10-22T00:07:17;11.93;;;4.78;;
30571;SDS011;17348;50.948;10.696;2022-10-22T00:10:21;8.52;;;4.32;;
30571;SDS011;17348;50.948;10.696;2022-10-22T00:13:24;8.98;;;4.13;;
30571;SDS011;17348;50.948;10.696;2022-10-22T00:16:26;7.45;;;4.25;;
30571;SDS011;17348;50.948;10.696;2022-10-22T00:19:28;7.75;;;4.70;;
30571;SDS011;17348;50.948;10.696;2022-10-22T00:22:30;7.00;;;4.28;;
30571;SDS011;17348;50.948;10.696;2022-10-22T00:25:34;9.88;;;4.50;;
30571;SDS011;17348;50.948;10.696;2022-10-22T00:28:36;7.75;;;4.88;;
30571;SDS011;17348;50.948;10.696;2022-10-22T00:31:39;7.65;;;4.65;;
30571;SDS011;17348;50.948;10.696;2022-10-22T00:34:41;8.10;;;4.00;;
30571;SDS011;17348;50.948;10.696;2022-10-22T00:37:44;8.80;;;4.78;;
30571;SDS011;17348;50.948;10.696;2022-10-22T00:40:47;12.98;;;5.47;;
30571;SDS011;17348;50.948;10.696;2022-10-22T00:43:53;10.05;;;5.25;;
30571;SDS011;17348;50.948;10.696;2022-10-22T00:46:56;7.47;;;4.80;;
30571;SDS011;17348;50.948;10.696;2022-10-22T00:49:58;8.15;;;4.45;;
30571;SDS011;17348;50.948;10.696;2022-10-22T00:53:02;7.70;;;4.93;;
30571;SDS011;17348;50.948;10.696;2022-10-22T00:56:10;9.40;;;4.78;;
30571;SDS011;17348;50.948;10.696;2022-10-22T00:59:12;8.43;;;5.13;;
30571;SDS011;17348;50.948;10.696;2022-10-22T01:02:16;5.60;;;4.18;;
30571;SDS011;17348;50.948;10.696;2022-10-22T01:05:18;8.65;;;4.85;;
30571;SDS011;17348;50.948;10.696;2022-10-22T01:08:23;10.23;;;5.82;;
30571;SDS011;17348;50.948;10.696;2022-10-22T01:11:37;11.68;;;4.70;;
30571;SDS011;17348;50.948;10.696;2022-10-22T01:14:52;10.20;;;5.03;;
30571;SDS011;17348;50.948;10.696;2022-10-22T01:18:05;10.38;;;4.45;;
30571;SDS011;17348;50.948;10.696;2022-10-22T01:21:14;9.30;;;5.15;;
30571;SDS011;17348;50.948;10.696;2022-10-22T01:24:27;8.00;;;5.25;;
30571;SDS011;17348;50.948;10.696;2022-10-22T01:27:43;11.02;;;5.40;;
30571;SDS011;17348;50.948;10.696;2022-10-22T01:30:56;8.10;;;5.60;;
30571;SDS011;17348;50.948;10.696;2022-10-22T01:34:01;10.38;;;5.57;;
30571;SDS011;17348;50.948;10.696;2022-10-22T01:37:04;11.88;;;5.32;;
30571;SDS011;17348;50.948;10.696;2022-10-22T01:40:09;9.32;;;5.88;;
30571;SDS011;17348;50.948;10.696;2022-10-22T01:43:12;10.57;;;6.05;;
30571;SDS011;17348;50.948;10.696;2022-10-22T01:46:16;11.07;;;5.82;;
30571;SDS011;17348;50.948;10.696;2022-10-22T01:49:21;12.50;;;5.22;;
30571;SDS011;17348;50.948;10.696;2022-10-22T01:52:34;12.45;;;5.80;;
30571;SDS011;17348;50.948;10.696;2022-10-22T01:55:52;9.82;;;5.65;;
30571;SDS011;17348;50.948;10.696;2022-10-22T01:59:04;9.05;;;5.63;;
30571;SDS011;17348;50.948;10.696;2022-10-22T02:02:11;12.05;;;5.95;;
30571;SDS011;17348;50.948;10.696;2022-10-22T02:05:24;12.35;;;6.35;;
30571;SDS011;17348;50.948;10.696;2022-10-22T02:08:31;9.60;;;5.70;;
30571;SDS011;17348;50.948;10.696;2022-10-22T02:11:35;8.80;;;6.22;;
30571;SDS011;17348;50.948;10.696;2022-10-22T02:14:38;11.63;;;5.97;;
30571;SDS011;17348;50.948;10.696;2022-10-22T02:17:45;9.10;;;4.65;;
30571;SDS011;17348;50.948;10.696;2022-10-22T02:20:48;9.68;;;4.90;;
30571;SDS011;17348;50.948;10.696;2022-10-22T02:23:50;7.68;;;4.60;;
30571;SDS011;17348;50.948;10.696;2022-10-22T02:26:54;11.60;;;5.18;;
30571;SDS011;17348;50.948;10.696;2022-10-22T02:30:02;8.73;;;5.28;;
30571;SDS011;17348;50.948;10.696;2022-10-22T02:33:09;8.50;;;5.22;;
30571;SDS011;17348;50.948;10.696;2022-10-22T02:36:15;9.30;;;5.72;;
30571;SDS011;17348;50.948;10.696;2022-10-22T02:39:18;9.20;;;5.47;;
30571;SDS011;17348;50.948;10.696;2022-10-22T02:42:22;10.15;;;5.55;;
30571;SDS011;17348;50.948;10.696;2022-10-22T02:45:26;16.65;;;6.18;;
30571;SDS011;17348;50.948;10.696;2022-10-22T02:48:29;10.98;;;6.03;;
30571;SDS011;17348;50.948;10.696;2022-10-22T02:51:31;8.80;;;5.68;;
30571;SDS011;17348;50.948;10.696;2022-10-22T02:54:34;10.05;;;5.90;;
30571;SDS011;17348;50.948;10.696;2022-10-22T02:57:36;10.40;;;5.75;;
30571;SDS011;17348;50.948;10.696;2022-10-22T03:00:38;8.32;;;5.60;;
30571;SDS011;17348;50.948;10.696;2022-10-22T03:03:42;11.70;;;6.07;;
30571;SDS011;17348;50.948;10.696;2022-10-22T03:06:44;8.65;;;5.25;;
30571;SDS011;17348;50.948;10.696;2022-10-22T03:09:48;12.55;;;5.85;;
30571;SDS011;17348;50.948;10.696;2022-10-22T03:12:50;7.40;;;4.68;;
30571;SDS011;17348;50.948;10.696;2022-10-22T03:15:52;7.65;;;4.40;;
30571;SDS011;17348;50.948;10.696;2022-10-22T03:18:56;12.05;;;4.40;;
30571;SDS011;17348;50.948;10.696;2022-10-22T03:21:58;5.72;;;3.75;;
30571;SDS011;17348;50.948;10.696;2022-10-22T03:25:05;6.90;;;3.80;;
30571;SDS011;17348;50.948;10.696;2022-10-22T03:28:11;11.50;;;4.13;;
30571;SDS011;17348;50.948;10.696;2022-10-22T03:31:16;11.45;;;4.07;;
30571;SDS011;17348;50.948;10.696;2022-10-22T03:34:19;15.40;;;5.03;;
30571;SDS011;17348;50.948;10.696;2022-10-22T03:37:22;8.90;;;4.22;;
30571;SDS011;17348;50.948;10.696;2022-10-22T03:40:25;14.60;;;4.75;;
30571;SDS011;17348;50.948;10.696;2022-10-22T03:43:28;7.70;;;4.03;;
30571;SDS011;17348;50.948;10.696;2022-10-22T03:46:30;9.90;;;4.70;;
30571;SDS011;17348;50.948;10.696;2022-10-22T03:49:34;4.70;;;3.60;;
30571;SDS011;17348;50.948;10.696;2022-10-22T03:52:36;14.50;;;4.38;;
30571;SDS011;17348;50.948;10.696;2022-10-22T03:55:40;12.55;;;4.95;;
30571;SDS011;17348;50.948;10.696;2022-10-22T03:58:42;14.07;;;3.90;;
30571;SDS011;17348;50.948;10.696;2022-10-22T04:01:44;11.93;;;4.68;;
30571;SDS011;17348;50.948;10.696;2022-10-22T04:04:48;7.00;;;4.43;;
30571;SDS011;17348;50.948;10.696;2022-10-22T04:07:50;6.63;;;4.80;;
30571;SDS011;17348;50.948;10.696;2022-10-22T04:10:52;8.88;;;4.13;;
30571;SDS011;17348;50.948;10.696;2022-10-22T04:13:54;10.75;;;4.18;;
30571;SDS011;17348;50.948;10.696;2022-10-22T04:16:57;9.35;;;4.30;;
30571;SDS011;17348;50.948;10.696;2022-10-22T04:20:00;7.10;;;4.40;;
30571;SDS011;17348;50.948;10.696;2022-10-22T04:23:03;8.45;;;4.65;;
30571;SDS011;17348;50.948;10.696;2022-10-22T04:26:06;6.97;;;4.35;;
30571;SDS011;17348;50.948;10.696;2022-10-22T04:29:08;11.38;;;4.93;;
30571;SDS011;17348;50.948;10.696;2022-10-22T04:32:11;9.90;;;5.32;;
30571;SDS011;17348;50.948;10.696;2022-10-22T04:35:15;7.57;;;4.75;;
30571;SDS011;17348;50.948;10.696;2022-10-22T04:38:17;9.55;;;5.72;;
30571;SDS011;17348;50.948;10.696;2022-10-22T04:41:20;10.77;;;5.03;;
30571;SDS011;17348;50.948;10.696;2022-10-22T04:44:24;8.02;;;4.95;;
30571;SDS011;17348;50.948;10.696;2022-10-22T04:47:26;9.63;;;4.53;;
30571;SDS011;17348;50.948;10.696;2022-10-22T04:50:30;5.45;;;2.90;;
30571;SDS011;17348;50.948;10.696;2022-10-22T04:53:32;4.45;;;2.17;;
30571;SDS011;17348;50.948;10.696;2022-10-22T04:56:35;5.15;;;2.50;;
30571;SDS011;17348;50.948;10.696;2022-10-22T04:59:37;7.30;;;2.28;;
30571;SDS011;17348;50.948;10.696;2022-10-22T05:02:39;3.60;;;1.63;;
30571;SDS011;17348;50.948;10.696;2022-10-22T05:05:45;2.63;;;1.65;;
30571;SDS011;17348;50.948;10.696;2022-10-22T05:08:47;2.03;;;1.60;;
30571;SDS011;17348;50.948;10.696;2022-10-22T05:11:53;3.38;;;2.13;;
30571;SDS011;17348;50.948;10.696;2022-10-22T05:14:56;4.57;;;2.97;;
30571;SDS011;17348;50.948;10.696;2022-10-22T05:17:58;2.88;;;1.38;;
30571;SDS011;17348;50.948;10.696;2022-10-22T05:21:01;4.03;;;1.20;;
30571;SDS011;17348;50.948;10.696;2022-10-22T05:24:04;2.83;;;1.00;;
30571;SDS011;17348;50.948;10.696;2022-10-22T05:27:07;3.92;;;0.95;;
30571;SDS011;17348;50.948;10.696;2022-10-22T05:30:10;3.35;;;1.30;;
30571;SDS011;17348;50.948;10.696;2022-10-22T05:33:12;1.95;;;1.23;;
30571;SDS011;17348;50.948;10.696;2022-10-22T05:36:16;4.35;;;1.63;;
30571;SDS011;17348;50.948;10.696;2022-10-22T05:39:20;4.45;;;1.35;;
30571;SDS011;17348;50.948;10.696;2022-10-22T05:42:22;3.97;;;1.13;;
30571;SDS011;17348;50.948;10.696;2022-10-22T05:45:24;1.48;;;1.15;;
30571;SDS011;17348;50.948;10.696;2022-10-22T05:48:27;1.80;;;0.93;;
30571;SDS011;17348;50.948;10.696;2022-10-22T05:51:31;4.18;;;1.70;;
30571;SDS011;17348;50.948;10.696;2022-10-22T05:54:34;0.73;;;0.50;;
30571;SDS011;17348;50.948;10.696;2022-10-22T05:57:38;2.85;;;0.63;;
30571;SDS011;17348;50.948;10.696;2022-10-22T06:00:40;1.73;;;1.35;;
30571;SDS011;17348;50.948;10.696;2022-10-22T06:03:43;1.00;;;0.50;;
30571;SDS011;17348;50.948;10.696;2022-10-22T06:06:47;1.73;;;0.50;;
30571;SDS011;17348;50.948;10.696;2022-10-22T06:09:51;0.50;;;0.30;;
30571;SDS011;17348;50.948;10.696;2022-10-22T06:12:54;2.42;;;0.32;;
30571;SDS011;17348;50.948;10.696;2022-10-22T06:15:56;1.58;;;0.30;;
30571;SDS011;17348;50.948;10.696;2022-10-22T06:18:59;1.33;;;0.50;;
30571;SDS011;17348;50.948;10.696;2022-10-22T06:22:03;3.70;;;0.40;;
30571;SDS011;17348;50.948;10.696;2022-10-22T06:25:06;2.45;;;0.35;;
30571;SDS011;17348;50.948;10.696;2022-10-22T06:28:08;1.02;;;0.40;;
30571;SDS011;17348;50.948;10.696;2022-10-22T06:31:11;1.67;;;0.60;;
30571;SDS011;17348;50.948;10.696;2022-10-22T06:34:14;2.78;;;0.60;;
30571;SDS011;17348;50.948;10.696;2022-10-22T06:37:19;1.30;;;0.60;;
30571;SDS011;17348;50.948;10.696;2022-10-22T06:40:21;3.83;;;0.80;;
30571;SDS011;17348;50.948;10.696;2022-10-22T06:43:24;0.60;;;0.40;;
30571;SDS011;17348;50.948;10.696;2022-10-22T06:46:26;1.10;;;0.50;;
30571;SDS011;17348;50.948;10.696;2022-10-22T06:49:28;1.23;;;0.80;;
30571;SDS011;17348;50.948;10.696;2022-10-22T06:52:32;1.85;;;0.77;;
30571;SDS011;17348;50.948;10.696;2022-10-22T06:55:34;4.43;;;0.70;;
30571;SDS011;17348;50.948;10.696;2022-10-22T06:58:36;3.08;;;1.15;;
30571;SDS011;17348;50.948;10.696;2022-10-22T07:01:39;2.28;;;1.30;;
30571;SDS011;17348;50.948;10.696;2022-10-22T07:04:41;1.27;;;0.98;;
30571;SDS011;17348;50.948;10.696;2022-10-22T07:07:45;2.78;;;1.33;;
30571;SDS011;17348;50.948;10.696;2022-10-22T07:10:47;1.35;;;1.08;;
30571;SDS011;17348;50.948;10.696;2022-10-22T07:13:49;12.00;;;1.02;;
30571;SDS011;17348;50.948;10.696;2022-10-22T07:16:52;1.77;;;0.95;;
30571;SDS011;17348;50.948;10.696;2022-10-22T07:19:54;1.75;;;1.00;;
30571;SDS011;17348;50.948;10.696;2022-10-22T07:22:58;4.20;;;1.20;;
30571;SDS011;17348;50.948;10.696;2022-10-22T07:26:00;2.10;;;0.95;;
30571;SDS011;17348;50.948;10.696;2022-10-22T07:29:03;1.40;;;0.80;;
30571;SDS011;17348;50.948;10.696;2022-10-22T07:32:06;0.73;;;0.63;;
30571;SDS011;17348;50.948;10.696;2022-10-22T07:35:08;2.05;;;0.70;;
30571;SDS011;17348;50.948;10.696;2022-10-22T07:38:12;2.70;;;0.75;;
30571;SDS011;17348;50.948;10.696;2022-10-22T07:41:15;1.35;;;0.90;;
30571;SDS011;17348;50.948;10.696;2022-10-22T07:44:17;3.05;;;0.75;;
30571;SDS011;17348;50.948;10.696;2022-10-22T07:47:20;1.92;;;0.90;;
30571;SDS011;17348;50.948;10.696;2022-10-22T07:50:22;1.45;;;0.75;;
30571;SDS011;17348;50.948;10.696;2022-10-22T07:53:25;2.17;;;0.52;;
30571;SDS011;17348;50.948;10.696;2022-10-22T07:56:28;0.82;;;0.82;;
30571;SDS011;17348;50.948;10.696;2022-10-22T07:59:30;0.85;;;0.52;;
30571;SDS011;17348;50.948;10.696;2022-10-22T08:02:32;2.47;;;0.60;;
30571;SDS011;17348;50.948;10.696;2022-10-22T08:05:34;1.10;;;0.70;;
30571;SDS011;17348;50.948;10.696;2022-10-22T08:08:38;1.75;;;0.73;;
30571;SDS011;17348;50.948;10.696;2022-10-22T08:11:40;2.45;;;0.73;;
30571;SDS011;17348;50.948;10.696;2022-10-22T08:14:42;3.28;;;0.52;;
30571;SDS011;17348;50.948;10.696;2022-10-22T08:17:44;0.90;;;0.50;;
30571;SDS011;17348;50.948;10.696;2022-10-22T08:20:47;1.70;;;0.65;;
30571;SDS011;17348;50.948;10.696;2022-10-22T08:23:50;5.05;;;1.05;;
30571;SDS011;17348;50.948;10.696;2022-10-22T08:26:52;1.50;;;0.80;;
30571;SDS011;17348;50.948;10.696;2022-10-22T08:29:55;2.40;;;0.65;;
30571;SDS011;17348;50.948;10.696;2022-10-22T08:32:58;0.45;;;0.45;;
30571;SDS011;17348;50.948;10.696;2022-10-22T08:36:00;1.35;;;0.88;;
30571;SDS011;17348;50.948;10.696;2022-10-22T08:39:04;4.43;;;0.85;;
30571;SDS011;17348;50.948;10.696;2022-10-22T08:42:10;0.93;;;0.60;;
30571;SDS011;17348;50.948;10.696;2022-10-22T08:45:30;7.25;;;1.38;;
30571;SDS011;17348;50.948;10.696;2022-10-22T08:48:43;5.90;;;1.40;;
30571;SDS011;17348;50.948;10.696;2022-10-22T08:51:48;2.13;;;0.55;;
30571;SDS011;17348;50.948;10.696;2022-10-22T08:54:53;3.60;;;0.50;;
30571;SDS011;17348;50.948;10.696;2022-10-22T08:57:58;4.18;;;0.95;;
30571;SDS011;17348;50.948;10.696;2022-10-22T09:01:06;1.52;;;0.77;;
30571;SDS011;17348;50.948;10.696;2022-10-22T09:04:15;4.18;;;0.70;;
30571;SDS011;17348;50.948;10.696;2022-10-22T09:07:24;1.88;;;0.80;;
30571;SDS011;17348;50.948;10.696;2022-10-22T09:10:30;2.55;;;0.70;;
30571;SDS011;17348;50.948;10.696;2022-10-22T09:13:33;2.10;;;0.63;;
30571;SDS011;17348;50.948;10.696;2022-10-22T09:16:37;3.35;;;0.63;;
30571;SDS011;17348;50.948;10.696;2022-10-22T09:19:58;3.50;;;0.70;;
30571;SDS011;17348;50.948;10.696;2022-10-22T09:23:19;4.07;;;0.90;;
30571;SDS011;17348;50.948;10.696;2022-10-22T09:26:30;1.00;;;0.65;;
30571;SDS011;17348;50.948;10.696;2022-10-22T09:29:34;3.15;;;0.95;;
30571;SDS011;17348;50.948;10.696;2022-10-22T09:32:37;1.38;;;0.80;;
30571;SDS011;17348;50.948;10.696;2022-10-22T09:35:43;2.15;;;0.85;;
30571;SDS011;17348;50.948;10.696;2022-10-22T09:38:48;3.35;;;0.60;;
30571;SDS011;17348;50.948;10.696;2022-10-22T09:41:52;1.42;;;0.88;;
30571;SDS011;17348;50.948;10.696;2022-10-22T09:44:55;2.03;;;0.80;;
30571;SDS011;17348;50.948;10.696;2022-10-22T09:48:03;1.88;;;0.90;;
30571;SDS011;17348;50.948;10.696;2022-10-22T09:51:13;3.13;;;1.52;;
30571;SDS011;17348;50.948;10.696;2022-10-22T09:54:19;8.77;;;0.95;;
30571;SDS011;17348;50.948;10.696;2022-10-22T09:57:24;2.90;;;1.40;;
30571;SDS011;17348;50.948;10.696;2022-10-22T10:00:29;7.30;;;1.40;;
30571;SDS011;17348;50.948;10.696;2022-10-22T10:03:32;2.22;;;1.38;;
30571;SDS011;17348;50.948;10.696;2022-10-22T10:06:34;2.05;;;1.40;;
30571;SDS011;17348;50.948;10.696;2022-10-22T10:09:39;2.72;;;1.35;;
30571;SDS011;17348;50.948;10.696;2022-10-22T10:12:43;2.92;;;1.35;;
30571;SDS011;17348;50.948;10.696;2022-10-22T10:15:53;5.03;;;1.33;;
30571;SDS011;17348;50.948;10.696;2022-10-22T10:19:06;2.42;;;1.70;;
30571;SDS011;17348;50.948;10.696;2022-10-22T10:22:24;3.30;;;1.20;;
30571;SDS011;17348;50.948;10.696;2022-10-22T10:25:41;2.38;;;1.20;;
30571;SDS011;17348;50.948;10.696;2022-10-22T10:28:53;2.55;;;1.00;;
30571;SDS011;17348;50.948;10.696;2022-10-22T10:32:11;5.35;;;2.10;;
30571;SDS011;17348;50.948;10.696;2022-10-22T10:35:24;2.83;;;1.60;;
30571;SDS011;17348;50.948;10.696;2022-10-22T10:38:34;5.40;;;1.70;;
30571;SDS011;17348;50.948;10.696;2022-10-22T10:41:45;9.25;;;2.08;;
30571;SDS011;17348;50.948;10.696;2022-10-22T10:45:01;4.43;;;1.42;;
30571;SDS011;17348;50.948;10.696;2022-10-22T10:48:19;3.15;;;1.80;;
30571;SDS011;17348;50.948;10.696;2022-10-22T10:51:36;5.45;;;1.73;;
30571;SDS011;17348;50.948;10.696;2022-10-22T10:54:47;4.30;;;1.75;;
30571;SDS011;17348;50.948;10.696;2022-10-22T10:57:57;3.45;;;1.83;;
30571;SDS011;17348;50.948;10.696;2022-10-22T11:01:11;11.57;;;1.55;;
30571;SDS011;17348;50.948;10.696;2022-10-22T11:04:21;3.47;;;1.60;;
30571;SDS011;17348;50.948;10.696;2022-10-22T11:07:35;3.42;;;1.50;;
30571;SDS011;17348;50.948;10.696;2022-10-22T11:10:43;5.75;;;1.67;;
30571;SDS011;17348;50.948;10.696;2022-10-22T11:13:49;6.05;;;1.75;;
30571;SDS011;17348;50.948;10.696;2022-10-22T11:16:57;9.55;;;2.00;;
30571;SDS011;17348;50.948;10.696;2022-10-22T11:20:03;6.47;;;2.10;;
30571;SDS011;17348;50.948;10.696;2022-10-22T11:23:15;6.07;;;2.08;;
30571;SDS011;17348;50.948;10.696;2022-10-22T11:26:26;8.85;;;2.20;;
30571;SDS011;17348;50.948;10.696;2022-10-22T11:29:39;8.63;;;1.52;;
30571;SDS011;17348;50.948;10.696;2022-10-22T11:32:46;2.40;;;1.52;;
30571;SDS011;17348;50.948;10.696;2022-10-22T11:35:52;3.80;;;1.40;;
30571;SDS011;17348;50.948;10.696;2022-10-22T11:38:56;3.40;;;1.50;;
30571;SDS011;17348;50.948;10.696;2022-10-22T11:41:58;7.00;;;1.52;;
30571;SDS011;17348;50.948;10.696;2022-10-22T11:45:05;6.45;;;1.13;;
30571;SDS011;17348;50.948;10.696;2022-10-22T11:48:34;5.60;;;1.77;;
30571;SDS011;17348;50.948;10.696;2022-10-22T11:51:39;2.05;;;1.15;;
30571;SDS011;17348;50.948;10.696;2022-10-22T11:54:43;6.78;;;1.17;;
30571;SDS011;17348;50.948;10.696;2022-10-22T11:57:46;4.53;;;1.27;;
30571;SDS011;17348;50.948;10.696;2022-10-22T12:00:48;8.20;;;1.30;;
30571;SDS011;17348;50.948;10.696;2022-10-22T12:03:52;6.82;;;1.30;;
30571;SDS011;17348;50.948;10.696;2022-10-22T12:07:27;9.48;;;1.70;;
30571;SDS011;17348;50.948;10.696;2022-10-22T12:10:33;4.43;;;1.13;;
30571;SDS011;17348;50.948;10.696;2022-10-22T12:13:52;1.58;;;1.13;;
30571;SDS011;17348;50.948;10.696;2022-10-22T12:17:04;6.88;;;1.27;;
30571;SDS011;17348;50.948;10.696;2022-10-22T12:20:13;2.33;;;1.58;;
30571;SDS011;17348;50.948;10.696;2022-10-22T12:23:17;2.38;;;1.17;;
30571;SDS011;17348;50.948;10.696;2022-10-22T12:26:22;3.90;;;1.23;;
30571;SDS011;17348;50.948;10.696;2022-10-22T12:29:26;4.82;;;1.20;;
30571;SDS011;17348;50.948;10.696;2022-10-22T12:32:32;3.13;;;1.40;;
30571;SDS011;17348;50.948;10.696;2022-10-22T12:35:42;9.27;;;2.13;;
30571;SDS011;17348;50.948;10.696;2022-10-22T12:38:46;2.58;;;1.48;;
30571;SDS011;17348;50.948;10.696;2022-10-22T12:41:48;6.68;;;1.75;;
30571;SDS011;17348;50.948;10.696;2022-10-22T12:44:53;8.15;;;1.50;;
30571;SDS011;17348;50.948;10.696;2022-10-22T12:47:57;2.78;;;0.95;;
30571;SDS011;17348;50.948;10.696;2022-10-22T12:51:03;2.63;;;1.17;;
30571;SDS011;17348;50.948;10.696;2022-10-22T12:54:08;5.10;;;1.40;;
30571;SDS011;17348;50.948;10.696;2022-10-22T12:57:16;2.85;;;1.25;;
30571;SDS011;17348;50.948;10.696;2022-10-22T13:00:21;16.10;;;1.65;;
30571;SDS011;17348;50.948;10.696;2022-10-22T13:03:27;1.90;;;1.17;;
30571;SDS011;17348;50.948;10.696;2022-10-22T13:06:34;5.20;;;1.23;;
30571;SDS011;17348;50.948;10.696;2022-10-22T13:09:36;2.85;;;1.50;;
30571;SDS011;17348;50.948;10.696;2022-10-22T13:12:42;4.22;;;1.08;;
30571;SDS011;17348;50.948;10.696;2022-10-22T13:15:49;1.98;;;1.05;;
30571;SDS011;17348;50.948;10.696;2022-10-22T13:18:52;11.82;;;1.45;;
30571;SDS011;17348;50.948;10.696;2022-10-22T13:21:56;2.00;;;1.00;;
30571;SDS011;17348;50.948;10.696;2022-10-22T13:24:58;7.22;;;1.25;;
30571;SDS011;17348;50.948;10.696;2022-10-22T13:28:12;4.00;;;1.40;;
30571;SDS011;17348;50.948;10.696;2022-10-22T13:31:22;7.25;;;1.27;;
30571;SDS011;17348;50.948;10.696;2022-10-22T13:34:31;10.35;;;1.55;;
30571;SDS011;17348;50.948;10.696;2022-10-22T13:37:37;3.43;;;1.00;;
30571;SDS011;17348;50.948;10.696;2022-10-22T13:40:39;4.55;;;1.05;;
30571;SDS011;17348;50.948;10.696;2022-10-22T13:43:41;3.40;;;1.15;;
30571;SDS011;17348;50.948;10.696;2022-10-22T13:46:43;3.75;;;1.17;;
30571;SDS011;17348;50.948;10.696;2022-10-22T13:49:46;7.68;;;1.20;;
30571;SDS011;17348;50.948;10.696;2022-10-22T13:52:50;1.92;;;0.93;;
30571;SDS011;17348;50.948;10.696;2022-10-22T13:55:54;5.93;;;1.17;;
30571;SDS011;17348;50.948;10.696;2022-10-22T13:58:57;2.28;;;0.90;;
30571;SDS011;17348;50.948;10.696;2022-10-22T14:01:59;3.38;;;1.00;;
30571;SDS011;17348;50.948;10.696;2022-10-22T14:05:06;2.55;;;0.60;;
30571;SDS011;17348;50.948;10.696;2022-10-22T14:08:11;2.70;;;0.95;;
30571;SDS011;17348;50.948;10.696;2022-10-22T14:11:15;3.70;;;0.90;;
30571;SDS011;17348;50.948;10.696;2022-10-22T14:14:17;3.17;;;1.13;;
30571;SDS011;17348;50.948;10.696;2022-10-22T14:17:20;6.63;;;1.23;;
30571;SDS011;17348;50.948;10.696;2022-10-22T14:20:22;4.13;;;1.38;;
30571;SDS011;17348;50.948;10.696;2022-10-22T14:23:28;7.97;;;1.35;;
30571;SDS011;17348;50.948;10.696;2022-10-22T14:26:32;5.50;;;1.40;;
30571;SDS011;17348;50.948;10.696;2022-10-22T14:29:34;4.78;;;1.10;;
30571;SDS011;17348;50.948;10.696;2022-10-22T14:32:36;6.68;;;1.38;;
30571;SDS011;17348;50.948;10.696;2022-10-22T14:35:39;8.60;;;1.00;;
30571;SDS011;17348;50.948;10.696;2022-10-22T14:38:43;3.88;;;1.42;;
30571;SDS011;17348;50.948;10.696;2022-10-22T14:41:46;6.10;;;1.30;;
30571;SDS011;17348;50.948;10.696;2022-10-22T14:44:49;2.67;;;1.00;;
30571;SDS011;17348;50.948;10.696;2022-10-22T14:47:51;11.65;;;1.50;;
30571;SDS011;17348;50.948;10.696;2022-10-22T14:50:55;7.07;;;2.22;;
30571;SDS011;17348;50.948;10.696;2022-10-22T14:53:58;4.97;;;1.10;;
30571;SDS011;17348;50.948;10.696;2022-10-22T14:57:01;6.00;;;2.00;;
30571;SDS011;17348;50.948;10.696;2022-10-22T15:00:05;12.18;;;5.68;;
30571;SDS011;17348;50.948;10.696;2022-10-22T15:03:09;3.67;;;1.55;;
30571;SDS011;17348;50.948;10.696;2022-10-22T15:06:11;6.68;;;1.60;;
30571;SDS011;17348;50.948;10.696;2022-10-22T15:09:15;8.02;;;1.35;;
30571;SDS011;17348;50.948;10.696;2022-10-22T15:12:17;7.35;;;1.83;;
30571;SDS011;17348;50.948;10.696;2022-10-22T15:15:20;5.63;;;2.17;;
30571;SDS011;17348;50.948;10.696;2022-10-22T15:18:22;5.30;;;1.60;;
30571;SDS011;17348;50.948;10.696;2022-10-22T15:21:25;3.88;;;1.75;;
30571;SDS011;17348;50.948;10.696;2022-10-22T15:24:28;7.32;;;1.30;;
30571;SDS011;17348;50.948;10.696;2022-10-22T15:27:31;4.78;;;1.42;;
30571;SDS011;17348;50.948;10.696;2022-10-22T15:30:33;5.60;;;1.95;;
30571;SDS011;17348;50.948;10.696;2022-10-22T15:33:35;4.10;;;1.33;;
30571;SDS011;17348;50.948;10.696;2022-10-22T15:36:37;8.43;;;1.50;;
30571;SDS011;17348;50.948;10.696;2022-10-22T15:39:41;6.10;;;1.90;;
30571;SDS011;17348;50.948;10.696;2022-10-22T15:42:43;9.00;;;1.67;;
30571;SDS011;17348;50.948;10.696;2022-10-22T15:45:46;3.05;;;1.38;;
30571;SDS011;17348;50.948;10.696;2022-10-22T15:49:08;8.63;;;1.15;;
30571;SDS011;17348;50.948;10.696;2022-10-22T15:52:11;3.47;;;1.55;;
30571;SDS011;17348;50.948;10.696;2022-10-22T15:55:14;3.50;;;1.23;;
30571;SDS011;17348;50.948;10.696;2022-10-22T15:58:16;5.57;;;1.35;;
30571;SDS011;17348;50.948;10.696;2022-10-22T16:01:19;5.97;;;1.00;;
30571;SDS011;17348;50.948;10.696;2022-10-22T16:04:21;3.13;;;1.58;;
30571;SDS011;17348;50.948;10.696;2022-10-22T16:07:23;5.32;;;1.20;;
30571;SDS011;17348;50.948;10.696;2022-10-22T16:10:27;4.75;;;1.00;;
30571;SDS011;17348;50.948;10.696;2022-10-22T16:13:29;7.05;;;1.40;;
30571;SDS011;17348;50.948;10.696;2022-10-22T16:16:32;8.93;;;3.20;;
30571;SDS011;17348;50.948;10.696;2022-10-22T16:19:36;7.82;;;2.60;;
30571;SDS011;17348;50.948;10.696;2022-10-22T16:22:38;8.77;;;2.83;;
30571;SDS011;17348;50.948;10.696;2022-10-22T16:25:42;11.48;;;4.60;;
30571;SDS011;17348;50.948;10.696;2022-10-22T16:28:44;12.68;;;4.68;;
30571;SDS011;17348;50.948;10.696;2022-10-22T16:31:47;19.25;;;4.85;;
30571;SDS011;17348;50.948;10.696;2022-10-22T16:34:50;21.73;;;6.45;;
30571;SDS011;17348;50.948;10.696;2022-10-22T16:37:52;13.27;;;5.63;;
30571;SDS011;17348;50.948;10.696;2022-10-22T16:41:06;14.18;;;7.28;;
30571;SDS011;17348;50.948;10.696;2022-10-22T16:44:09;10.45;;;4.50;;
30571;SDS011;17348;50.948;10.696;2022-10-22T16:47:12;8.18;;;4.25;;
30571;SDS011;17348;50.948;10.696;2022-10-22T16:50:15;15.93;;;6.82;;
30571;SDS011;17348;50.948;10.696;2022-10-22T16:53:17;14.43;;;4.47;;
30571;SDS011;17348;50.948;10.696;2022-10-22T16:56:21;13.50;;;4.00;;
30571;SDS011;17348;50.948;10.696;2022-10-22T16:59:23;9.32;;;2.38;;
30571;SDS011;17348;50.948;10.696;2022-10-22T17:02:25;10.90;;;3.58;;
30571;SDS011;17348;50.948;10.696;2022-10-22T17:05:28;13.13;;;5.25;;
30571;SDS011;17348;50.948;10.696;2022-10-22T17:08:32;22.02;;;9.00;;
30571;SDS011;17348;50.948;10.696;2022-10-22T17:11:36;33.88;;;10.73;;
30571;SDS011;17348;50.948;10.696;2022-10-22T17:14:38;22.60;;;9.85;;
30571;SDS011;17348;50.948;10.696;2022-10-22T17:17:41;23.05;;;10.95;;
30571;SDS011;17348;50.948;10.696;2022-10-22T17:20:47;23.30;;;11.85;;
30571;SDS011;17348;50.948;10.696;2022-10-22T17:23:52;20.10;;;9.05;;
30571;SDS011;17348;50.948;10.696;2022-10-22T17:26:57;22.52;;;7.75;;
30571;SDS011;17348;50.948;10.696;2022-10-22T17:29:59;23.00;;;7.85;;
30571;SDS011;17348;50.948;10.696;2022-10-22T17:33:01;21.02;;;7.53;;
30571;SDS011;17348;50.948;10.696;2022-10-22T17:36:04;12.10;;;5.57;;
30571;SDS011;17348;50.948;10.696;2022-10-22T17:39:10;7.82;;;3.88;;
30571;SDS011;17348;50.948;10.696;2022-10-22T17:42:17;20.35;;;3.67;;
30571;SDS011;17348;50.948;10.696;2022-10-22T17:45:20;9.57;;;4.50;;
30571;SDS011;17348;50.948;10.696;2022-10-22T17:48:23;14.88;;;6.15;;
30571;SDS011;17348;50.948;10.696;2022-10-22T17:51:26;16.15;;;6.20;;
30571;SDS011;17348;50.948;10.696;2022-10-22T17:54:29;12.07;;;5.20;;
30571;SDS011;17348;50.948;10.696;2022-10-22T17:57:32;12.88;;;4.95;;
30571;SDS011;17348;50.948;10.696;2022-10-22T18:00:35;17.83;;;5.97;;
30571;SDS011;17348;50.948;10.696;2022-10-22T18:03:37;17.55;;;6.95;;
30571;SDS011;17348;50.948;10.696;2022-10-22T18:06:39;22.80;;;7.35;;
30571;SDS011;17348;50.948;10.696;2022-10-22T18:09:41;28.20;;;8.00;;
30571;SDS011;17348;50.948;10.696;2022-10-22T18:12:45;21.98;;;8.50;;